Terminal Aerodrome Forecast
Issued by NWS Buffalo, NY

Home | Current Version | Previous Version | Text Only | Print | Product List | Glossary On
Versions: 1 2 3 4 5 6 7 8 9 10 11 12 13 14 15 16 17 18 19 20 21 22 23 24 25 26 27 28 29 30 31 32 33
000
FTUS41 KBUF 012000 AAB
TAFBUF
TAF AMD
KBUF 012059Z 0121/0218 07016KT 1 1/2SM -SN BKN020 OVC035
     FM012300 07014KT 1SM -SN OVC015
     FM020400 07015G22KT 1/2SM SN BLSN OVC012
     FM021400 01014G21KT 2SM -SN OVC015=

USA.gov is the U.S. government's official web portal to all federal, state and local government web resources and services.